sensor_id;sensor_type;location;lat;lon;timestamp;temperature;humidity
17845;DHT22;9047;53.486;10.218;2023-09-08T00:01:33;18.60;99.90
17845;DHT22;9047;53.486;10.218;2023-09-08T00:04:00;18.60;99.90
17845;DHT22;9047;53.486;10.218;2023-09-08T00:06:26;18.60;99.90
17845;DHT22;9047;53.486;10.218;2023-09-08T00:08:53;18.60;99.90
17845;DHT22;9047;53.486;10.218;2023-09-08T00:11:20;18.50;99.90
17845;DHT22;9047;53.486;10.218;2023-09-08T00:13:48;18.50;99.90
17845;DHT22;9047;53.486;10.218;2023-09-08T00:16:17;18.40;99.90
17845;DHT22;9047;53.486;10.218;2023-09-08T00:18:45;18.40;99.90
17845;DHT22;9047;53.486;10.218;2023-09-08T00:21:15;18.30;99.90
17845;DHT22;9047;53.486;10.218;2023-09-08T00:23:42;18.30;99.90
17845;DHT22;9047;53.486;10.218;2023-09-08T00:26:08;18.30;99.90
17845;DHT22;9047;53.486;10.218;2023-09-08T00:28:35;18.30;99.90
17845;DHT22;9047;53.486;10.218;2023-09-08T00:31:02;18.20;99.90
17845;DHT22;9047;53.486;10.218;2023-09-08T00:33:31;18.20;99.90
17845;DHT22;9047;53.486;10.218;2023-09-08T00:35:58;18.20;99.90
17845;DHT22;9047;53.486;10.218;2023-09-08T00:38:25;18.20;99.90
17845;DHT22;9047;53.486;10.218;2023-09-08T00:40:52;18.20;99.90
17845;DHT22;9047;53.486;10.218;2023-09-08T00:43:18;18.10;99.90
17845;DHT22;9047;53.486;10.218;2023-09-08T00:45:46;18.10;99.90
17845;DHT22;9047;53.486;10.218;2023-09-08T00:48:14;18.10;99.90
17845;DHT22;9047;53.486;10.218;2023-09-08T00:50:43;18.10;99.90
17845;DHT22;9047;53.486;10.218;2023-09-08T00:53:12;18.00;99.90
17845;DHT22;9047;53.486;10.218;2023-09-08T00:55:41;18.00;99.90
17845;DHT22;9047;53.486;10.218;2023-09-08T00:58:08;18.00;99.90
17845;DHT22;9047;53.486;10.218;2023-09-08T01:00:35;18.00;99.90
17845;DHT22;9047;53.486;10.218;2023-09-08T01:03:01;17.90;99.90
17845;DHT22;9047;53.486;10.218;2023-09-08T01:05:29;17.90;99.90
17845;DHT22;9047;53.486;10.218;2023-09-08T01:07:58;17.90;99.90
17845;DHT22;9047;53.486;10.218;2023-09-08T01:10:25;17.90;99.90
17845;DHT22;9047;53.486;10.218;2023-09-08T01:12:52;18.00;99.90
17845;DHT22;9047;53.486;10.218;2023-09-08T01:15:19;17.90;99.90
17845;DHT22;9047;53.486;10.218;2023-09-08T01:17:46;17.90;99.90
17845;DHT22;9047;53.486;10.218;2023-09-08T01:20:18;17.80;99.90
17845;DHT22;9047;53.486;10.218;2023-09-08T01:23:11;17.80;99.90
17845;DHT22;9047;53.486;10.218;2023-09-08T01:25:43;17.80;99.90
17845;DHT22;9047;53.486;10.218;2023-09-08T01:28:14;17.80;99.90
17845;DHT22;9047;53.486;10.218;2023-09-08T01:30:41;17.80;99.90
17845;DHT22;9047;53.486;10.218;2023-09-08T01:33:09;17.70;99.90
17845;DHT22;9047;53.486;10.218;2023-09-08T01:35:36;17.70;99.90
17845;DHT22;9047;53.486;10.218;2023-09-08T01:38:03;17.70;99.90
17845;DHT22;9047;53.486;10.218;2023-09-08T01:40:30;17.60;99.90
17845;DHT22;9047;53.486;10.218;2023-09-08T01:43:00;17.60;99.90
17845;DHT22;9047;53.486;10.218;2023-09-08T01:45:27;17.60;99.90
17845;DHT22;9047;53.486;10.218;2023-09-08T01:47:53;17.50;99.90
17845;DHT22;9047;53.486;10.218;2023-09-08T01:50:20;17.50;99.90
17845;DHT22;9047;53.486;10.218;2023-09-08T01:52:51;17.60;99.90
17845;DHT22;9047;53.486;10.218;2023-09-08T01:55:18;17.40;99.90
17845;DHT22;9047;53.486;10.218;2023-09-08T01:57:46;17.30;99.90
17845;DHT22;9047;53.486;10.218;2023-09-08T02:00:15;17.30;99.90
17845;DHT22;9047;53.486;10.218;2023-09-08T02:02:42;17.30;99.90
17845;DHT22;9047;53.486;10.218;2023-09-08T02:05:09;17.20;99.90
17845;DHT22;9047;53.486;10.218;2023-09-08T02:07:36;17.20;99.90
17845;DHT22;9047;53.486;10.218;2023-09-08T02:10:03;17.20;99.90
17845;DHT22;9047;53.486;10.218;2023-09-08T02:12:30;17.10;99.90
17845;DHT22;9047;53.486;10.218;2023-09-08T02:14:59;17.10;99.90
17845;DHT22;9047;53.486;10.218;2023-09-08T02:17:27;17.10;99.90
17845;DHT22;9047;53.486;10.218;2023-09-08T02:19:54;17.00;99.90
17845;DHT22;9047;53.486;10.218;2023-09-08T02:22:21;17.00;99.90
17845;DHT22;9047;53.486;10.218;2023-09-08T02:24:48;17.00;99.90
17845;DHT22;9047;53.486;10.218;2023-09-08T02:27:17;17.00;99.90
17845;DHT22;9047;53.486;10.218;2023-09-08T02:29:44;16.90;99.90
17845;DHT22;9047;53.486;10.218;2023-09-08T02:32:13;17.00;99.90
17845;DHT22;9047;53.486;10.218;2023-09-08T02:34:41;17.00;99.90
17845;DHT22;9047;53.486;10.218;2023-09-08T02:37:10;17.00;99.90
17845;DHT22;9047;53.486;10.218;2023-09-08T02:39:37;17.00;99.90
17845;DHT22;9047;53.486;10.218;2023-09-08T02:42:04;17.00;99.90
17845;DHT22;9047;53.486;10.218;2023-09-08T02:44:32;16.90;99.90
17845;DHT22;9047;53.486;10.218;2023-09-08T02:46:59;16.90;99.90
17845;DHT22;9047;53.486;10.218;2023-09-08T02:49:26;16.80;99.90
17845;DHT22;9047;53.486;10.218;2023-09-08T02:51:54;16.80;99.90
17845;DHT22;9047;53.486;10.218;2023-09-08T02:54:21;16.80;99.90
17845;DHT22;9047;53.486;10.218;2023-09-08T02:56:48;16.70;99.90
17845;DHT22;9047;53.486;10.218;2023-09-08T02:59:14;16.70;99.90
17845;DHT22;9047;53.486;10.218;2023-09-08T03:01:43;16.70;99.90
17845;DHT22;9047;53.486;10.218;2023-09-08T03:04:10;16.70;99.90
17845;DHT22;9047;53.486;10.218;2023-09-08T03:06:37;16.70;99.90
17845;DHT22;9047;53.486;10.218;2023-09-08T03:09:05;16.70;99.90
17845;DHT22;9047;53.486;10.218;2023-09-08T03:11:32;16.60;99.90
17845;DHT22;9047;53.486;10.218;2023-09-08T03:13:59;16.60;99.90
17845;DHT22;9047;53.486;10.218;2023-09-08T03:16:26;16.60;99.90
17845;DHT22;9047;53.486;10.218;2023-09-08T03:18:52;16.60;99.90
17845;DHT22;9047;53.486;10.218;2023-09-08T03:21:19;16.50;99.90
17845;DHT22;9047;53.486;10.218;2023-09-08T03:23:48;16.50;99.90
17845;DHT22;9047;53.486;10.218;2023-09-08T03:26:17;16.40;99.90
17845;DHT22;9047;53.486;10.218;2023-09-08T03:28:44;16.40;99.90
17845;DHT22;9047;53.486;10.218;2023-09-08T03:31:13;16.30;99.90
17845;DHT22;9047;53.486;10.218;2023-09-08T03:33:40;16.30;99.90
17845;DHT22;9047;53.486;10.218;2023-09-08T03:36:08;16.20;99.90
17845;DHT22;9047;53.486;10.218;2023-09-08T03:38:35;16.20;99.90
17845;DHT22;9047;53.486;10.218;2023-09-08T03:41:03;16.10;99.90
17845;DHT22;9047;53.486;10.218;2023-09-08T03:43:31;16.10;99.90
17845;DHT22;9047;53.486;10.218;2023-09-08T03:45:59;16.00;99.90
17845;DHT22;9047;53.486;10.218;2023-09-08T03:48:26;16.00;99.90
17845;DHT22;9047;53.486;10.218;2023-09-08T03:50:53;16.00;99.90
17845;DHT22;9047;53.486;10.218;2023-09-08T03:53:20;16.00;99.90
17845;DHT22;9047;53.486;10.218;2023-09-08T03:55:47;16.00;99.90
17845;DHT22;9047;53.486;10.218;2023-09-08T03:58:13;16.00;99.90
17845;DHT22;9047;53.486;10.218;2023-09-08T04:00:42;16.00;99.90
17845;DHT22;9047;53.486;10.218;2023-09-08T04:03:09;15.90;99.90
17845;DHT22;9047;53.486;10.218;2023-09-08T04:05:36;15.90;99.90
17845;DHT22;9047;53.486;10.218;2023-09-08T04:08:03;15.90;99.90
17845;DHT22;9047;53.486;10.218;2023-09-08T04:10:30;15.80;99.90
17845;DHT22;9047;53.486;10.218;2023-09-08T04:12:57;15.90;99.90
17845;DHT22;9047;53.486;10.218;2023-09-08T04:15:24;15.90;99.90
17845;DHT22;9047;53.486;10.218;2023-09-08T04:17:52;15.90;99.90
17845;DHT22;9047;53.486;10.218;2023-09-08T04:20:19;15.90;99.90
17845;DHT22;9047;53.486;10.218;2023-09-08T04:22:46;15.90;99.90
17845;DHT22;9047;53.486;10.218;2023-09-08T04:25:14;15.80;99.90
17845;DHT22;9047;53.486;10.218;2023-09-08T04:27:41;15.80;99.90
17845;DHT22;9047;53.486;10.218;2023-09-08T04:30:10;15.80;99.90
17845;DHT22;9047;53.486;10.218;2023-09-08T04:32:37;15.80;99.90
17845;DHT22;9047;53.486;10.218;2023-09-08T04:35:06;15.80;99.90
17845;DHT22;9047;53.486;10.218;2023-09-08T04:37:33;15.80;99.90
17845;DHT22;9047;53.486;10.218;2023-09-08T04:40:00;15.80;99.90
17845;DHT22;9047;53.486;10.218;2023-09-08T04:42:28;15.80;99.90
17845;DHT22;9047;53.486;10.218;2023-09-08T04:44:55;15.80;99.90
17845;DHT22;9047;53.486;10.218;2023-09-08T04:47:22;15.70;99.90
17845;DHT22;9047;53.486;10.218;2023-09-08T04:49:49;15.80;99.90
17845;DHT22;9047;53.486;10.218;2023-09-08T04:52:17;15.80;99.90
17845;DHT22;9047;53.486;10.218;2023-09-08T04:54:44;15.80;99.90
17845;DHT22;9047;53.486;10.218;2023-09-08T04:57:11;15.80;99.90
17845;DHT22;9047;53.486;10.218;2023-09-08T04:59:39;15.80;99.90
17845;DHT22;9047;53.486;10.218;2023-09-08T05:02:06;15.80;99.90
17845;DHT22;9047;53.486;10.218;2023-09-08T05:04:32;15.80;99.90
17845;DHT22;9047;53.486;10.218;2023-09-08T05:06:59;15.80;99.90
17845;DHT22;9047;53.486;10.218;2023-09-08T05:09:27;15.80;99.90
17845;DHT22;9047;53.486;10.218;2023-09-08T05:11:55;15.80;99.90
17845;DHT22;9047;53.486;10.218;2023-09-08T05:14:21;15.80;99.90
17845;DHT22;9047;53.486;10.218;2023-09-08T05:16:53;15.90;99.90
17845;DHT22;9047;53.486;10.218;2023-09-08T05:19:22;15.90;99.90
17845;DHT22;9047;53.486;10.218;2023-09-08T05:21:50;15.90;99.90
17845;DHT22;9047;53.486;10.218;2023-09-08T05:24:18;15.90;99.90
17845;DHT22;9047;53.486;10.218;2023-09-08T05:26:49;16.00;99.90
17845;DHT22;9047;53.486;10.218;2023-09-08T05:29:16;16.00;99.90
17845;DHT22;9047;53.486;10.218;2023-09-08T05:31:45;16.10;99.90
17845;DHT22;9047;53.486;10.218;2023-09-08T05:34:13;16.10;99.90
17845;DHT22;9047;53.486;10.218;2023-09-08T05:36:40;16.10;99.90
17845;DHT22;9047;53.486;10.218;2023-09-08T05:39:08;16.20;99.90
17845;DHT22;9047;53.486;10.218;2023-09-08T05:41:35;16.20;99.90
17845;DHT22;9047;53.486;10.218;2023-09-08T05:44:04;16.20;99.90
17845;DHT22;9047;53.486;10.218;2023-09-08T05:46:31;16.30;99.90
17845;DHT22;9047;53.486;10.218;2023-09-08T05:48:58;16.30;99.90
17845;DHT22;9047;53.486;10.218;2023-09-08T05:51:26;16.40;99.90
17845;DHT22;9047;53.486;10.218;2023-09-08T05:53:53;16.40;99.90
17845;DHT22;9047;53.486;10.218;2023-09-08T05:56:20;16.50;99.90
17845;DHT22;9047;53.486;10.218;2023-09-08T05:58:48;16.60;99.90
17845;DHT22;9047;53.486;10.218;2023-09-08T06:01:16;16.60;99.90
17845;DHT22;9047;53.486;10.218;2023-09-08T06:03:43;16.70;99.90
17845;DHT22;9047;53.486;10.218;2023-09-08T06:06:10;16.80;99.90
17845;DHT22;9047;53.486;10.218;2023-09-08T06:08:37;16.90;99.90
17845;DHT22;9047;53.486;10.218;2023-09-08T06:11:04;17.00;99.90
17845;DHT22;9047;53.486;10.218;2023-09-08T06:13:31;17.10;99.90
17845;DHT22;9047;53.486;10.218;2023-09-08T06:15:58;17.30;99.90
17845;DHT22;9047;53.486;10.218;2023-09-08T06:18:28;17.40;99.90
17845;DHT22;9047;53.486;10.218;2023-09-08T06:20:55;17.70;99.90
17845;DHT22;9047;53.486;10.218;2023-09-08T06:23:22;18.20;99.90
17845;DHT22;9047;53.486;10.218;2023-09-08T06:25:49;18.90;99.90
17845;DHT22;9047;53.486;10.218;2023-09-08T06:28:18;19.70;99.90
17845;DHT22;9047;53.486;10.218;2023-09-08T06:30:46;20.60;99.90
17845;DHT22;9047;53.486;10.218;2023-09-08T06:33:22;21.30;99.90
17845;DHT22;9047;53.486;10.218;2023-09-08T06:35:56;22.10;99.90
17845;DHT22;9047;53.486;10.218;2023-09-08T06:38:23;22.70;99.90
17845;DHT22;9047;53.486;10.218;2023-09-08T06:40:50;23.20;99.90
17845;DHT22;9047;53.486;10.218;2023-09-08T06:43:18;23.50;99.90
17845;DHT22;9047;53.486;10.218;2023-09-08T06:45:47;23.90;99.90
17845;DHT22;9047;53.486;10.218;2023-09-08T06:48:14;24.20;99.90
17845;DHT22;9047;53.486;10.218;2023-09-08T06:50:41;24.40;99.90
17845;DHT22;9047;53.486;10.218;2023-09-08T06:53:13;24.80;99.90
17845;DHT22;9047;53.486;10.218;2023-09-08T06:55:40;25.00;99.90
17845;DHT22;9047;53.486;10.218;2023-09-08T06:58:12;25.10;99.90
17845;DHT22;9047;53.486;10.218;2023-09-08T07:00:40;25.40;99.90
17845;DHT22;9047;53.486;10.218;2023-09-08T07:03:07;25.60;99.90
17845;DHT22;9047;53.486;10.218;2023-09-08T07:05:34;25.60;99.90
17845;DHT22;9047;53.486;10.218;2023-09-08T07:08:01;25.60;99.90
17845;DHT22;9047;53.486;10.218;2023-09-08T07:10:29;25.80;99.90
17845;DHT22;9047;53.486;10.218;2023-09-08T07:12:57;25.90;99.90
17845;DHT22;9047;53.486;10.218;2023-09-08T07:15:23;25.90;99.90
17845;DHT22;9047;53.486;10.218;2023-09-08T07:17:50;26.00;99.90
17845;DHT22;9047;53.486;10.218;2023-09-08T07:20:17;26.00;99.90
17845;DHT22;9047;53.486;10.218;2023-09-08T07:22:49;26.10;99.90
17845;DHT22;9047;53.486;10.218;2023-09-08T07:25:16;26.10;99.90
17845;DHT22;9047;53.486;10.218;2023-09-08T07:27:44;26.10;99.90
17845;DHT22;9047;53.486;10.218;2023-09-08T07:30:14;26.10;99.90
17845;DHT22;9047;53.486;10.218;2023-09-08T07:32:44;26.10;99.90
17845;DHT22;9047;53.486;10.218;2023-09-08T07:35:11;26.10;99.90
17845;DHT22;9047;53.486;10.218;2023-09-08T07:37:40;25.80;99.90
17845;DHT22;9047;53.486;10.218;2023-09-08T07:40:10;25.50;99.90
17845;DHT22;9047;53.486;10.218;2023-09-08T07:42:37;25.20;99.90
17845;DHT22;9047;53.486;10.218;2023-09-08T07:45:07;24.70;99.90
17845;DHT22;9047;53.486;10.218;2023-09-08T07:47:35;24.30;99.90
17845;DHT22;9047;53.486;10.218;2023-09-08T07:50:17;24.00;99.90
17845;DHT22;9047;53.486;10.218;2023-09-08T07:52:45;23.70;99.90
17845;DHT22;9047;53.486;10.218;2023-09-08T07:55:12;23.50;99.90
17845;DHT22;9047;53.486;10.218;2023-09-08T07:57:40;23.30;99.90
17845;DHT22;9047;53.486;10.218;2023-09-08T08:00:09;23.30;99.90
17845;DHT22;9047;53.486;10.218;2023-09-08T08:02:37;23.10;99.90
17845;DHT22;9047;53.486;10.218;2023-09-08T08:05:05;23.10;99.90
17845;DHT22;9047;53.486;10.218;2023-09-08T08:07:32;23.10;99.90
17845;DHT22;9047;53.486;10.218;2023-09-08T08:09:59;23.10;99.90
17845;DHT22;9047;53.486;10.218;2023-09-08T08:12:26;23.10;99.90
17845;DHT22;9047;53.486;10.218;2023-09-08T08:14:54;23.10;99.90
17845;DHT22;9047;53.486;10.218;2023-09-08T08:17:22;23.10;99.90
17845;DHT22;9047;53.486;10.218;2023-09-08T08:19:48;23.20;99.90
17845;DHT22;9047;53.486;10.218;2023-09-08T08:22:15;23.20;99.90
17845;DHT22;9047;53.486;10.218;2023-09-08T08:24:42;23.30;99.90
17845;DHT22;9047;53.486;10.218;2023-09-08T08:27:09;23.40;99.90
17845;DHT22;9047;53.486;10.218;2023-09-08T08:29:36;23.40;99.90
17845;DHT22;9047;53.486;10.218;2023-09-08T08:32:03;23.50;99.90
17845;DHT22;9047;53.486;10.218;2023-09-08T08:34:32;23.50;99.90
17845;DHT22;9047;53.486;10.218;2023-09-08T08:36:59;23.50;99.90
17845;DHT22;9047;53.486;10.218;2023-09-08T08:39:29;23.50;99.90
17845;DHT22;9047;53.486;10.218;2023-09-08T08:41:56;23.60;99.90
17845;DHT22;9047;53.486;10.218;2023-09-08T08:44:23;23.70;99.90
17845;DHT22;9047;53.486;10.218;2023-09-08T08:46:51;23.80;99.90
17845;DHT22;9047;53.486;10.218;2023-09-08T08:49:21;23.90;99.90
17845;DHT22;9047;53.486;10.218;2023-09-08T08:51:52;24.00;99.90
17845;DHT22;9047;53.486;10.218;2023-09-08T08:54:23;24.10;99.90
17845;DHT22;9047;53.486;10.218;2023-09-08T08:56:51;24.20;99.90
17845;DHT22;9047;53.486;10.218;2023-09-08T08:59:18;24.20;99.90
17845;DHT22;9047;53.486;10.218;2023-09-08T09:01:47;24.30;99.90
17845;DHT22;9047;53.486;10.218;2023-09-08T09:04:16;24.40;99.90
17845;DHT22;9047;53.486;10.218;2023-09-08T09:06:43;24.50;99.90
17845;DHT22;9047;53.486;10.218;2023-09-08T09:09:11;24.60;99.90
17845;DHT22;9047;53.486;10.218;2023-09-08T09:11:40;24.70;99.90
17845;DHT22;9047;53.486;10.218;2023-09-08T09:14:08;24.80;99.90
17845;DHT22;9047;53.486;10.218;2023-09-08T09:16:39;25.00;99.90
17845;DHT22;9047;53.486;10.218;2023-09-08T09:19:10;25.00;99.90
17845;DHT22;9047;53.486;10.218;2023-09-08T09:21:46;25.10;99.90
17845;DHT22;9047;53.486;10.218;2023-09-08T09:24:28;25.20;99.90
17845;DHT22;9047;53.486;10.218;2023-09-08T09:26:56;25.40;99.90
17845;DHT22;9047;53.486;10.218;2023-09-08T09:29:24;25.40;99.90
17845;DHT22;9047;53.486;10.218;2023-09-08T09:31:52;25.60;99.90
17845;DHT22;9047;53.486;10.218;2023-09-08T09:34:22;25.60;99.90
17845;DHT22;9047;53.486;10.218;2023-09-08T09:36:52;25.70;99.90
17845;DHT22;9047;53.486;10.218;2023-09-08T09:39:21;25.70;99.90
17845;DHT22;9047;53.486;10.218;2023-09-08T09:41:53;25.80;99.90
17845;DHT22;9047;53.486;10.218;2023-09-08T09:44:21;25.90;99.90
17845;DHT22;9047;53.486;10.218;2023-09-08T09:46:50;25.90;99.90
17845;DHT22;9047;53.486;10.218;2023-09-08T09:49:18;26.00;99.90
17845;DHT22;9047;53.486;10.218;2023-09-08T09:51:47;26.20;99.90
17845;DHT22;9047;53.486;10.218;2023-09-08T09:54:17;26.20;99.90
17845;DHT22;9047;53.486;10.218;2023-09-08T09:56:45;26.20;99.90
17845;DHT22;9047;53.486;10.218;2023-09-08T09:59:13;26.20;99.90
17845;DHT22;9047;53.486;10.218;2023-09-08T10:01:41;26.30;99.90
17845;DHT22;9047;53.486;10.218;2023-09-08T10:04:09;26.40;99.90
17845;DHT22;9047;53.486;10.218;2023-09-08T10:06:36;26.50;99.90
17845;DHT22;9047;53.486;10.218;2023-09-08T10:09:05;26.60;99.90
17845;DHT22;9047;53.486;10.218;2023-09-08T10:11:42;26.70;99.90
17845;DHT22;9047;53.486;10.218;2023-09-08T10:14:11;26.80;99.90
17845;DHT22;9047;53.486;10.218;2023-09-08T10:16:43;26.90;99.90
17845;DHT22;9047;53.486;10.218;2023-09-08T10:19:11;27.00;99.90
17845;DHT22;9047;53.486;10.218;2023-09-08T10:21:40;27.10;99.90
17845;DHT22;9047;53.486;10.218;2023-09-08T10:24:14;27.10;99.90
17845;DHT22;9047;53.486;10.218;2023-09-08T10:26:44;27.10;99.90
17845;DHT22;9047;53.486;10.218;2023-09-08T10:29:13;27.20;99.90
17845;DHT22;9047;53.486;10.218;2023-09-08T10:31:41;27.20;99.90
17845;DHT22;9047;53.486;10.218;2023-09-08T10:34:09;27.20;99.90
17845;DHT22;9047;53.486;10.218;2023-09-08T10:36:36;27.30;99.90
17845;DHT22;9047;53.486;10.218;2023-09-08T10:39:28;27.30;99.90
17845;DHT22;9047;53.486;10.218;2023-09-08T10:42:20;27.40;99.90
17845;DHT22;9047;53.486;10.218;2023-09-08T10:44:59;27.50;99.90
17845;DHT22;9047;53.486;10.218;2023-09-08T10:47:39;27.60;99.90
17845;DHT22;9047;53.486;10.218;2023-09-08T10:50:14;27.60;99.90
17845;DHT22;9047;53.486;10.218;2023-09-08T10:52:42;27.70;99.90
17845;DHT22;9047;53.486;10.218;2023-09-08T10:55:11;27.80;99.90
17845;DHT22;9047;53.486;10.218;2023-09-08T10:57:38;27.90;99.90
17845;DHT22;9047;53.486;10.218;2023-09-08T11:00:07;27.90;99.90
17845;DHT22;9047;53.486;10.218;2023-09-08T11:02:38;28.00;99.90
17845;DHT22;9047;53.486;10.218;2023-09-08T11:05:07;28.10;99.90
17845;DHT22;9047;53.486;10.218;2023-09-08T11:07:35;28.10;99.90
17845;DHT22;9047;53.486;10.218;2023-09-08T11:10:17;28.20;99.90
17845;DHT22;9047;53.486;10.218;2023-09-08T11:12:45;28.20;99.90
17845;DHT22;9047;53.486;10.218;2023-09-08T11:15:13;28.20;99.90
17845;DHT22;9047;53.486;10.218;2023-09-08T11:17:40;28.30;99.90
17845;DHT22;9047;53.486;10.218;2023-09-08T11:20:08;28.40;99.90
17845;DHT22;9047;53.486;10.218;2023-09-08T11:22:36;28.40;99.90
17845;DHT22;9047;53.486;10.218;2023-09-08T11:25:06;28.50;99.90
17845;DHT22;9047;53.486;10.218;2023-09-08T11:27:34;28.50;99.90
17845;DHT22;9047;53.486;10.218;2023-09-08T11:30:01;28.60;99.90
17845;DHT22;9047;53.486;10.218;2023-09-08T11:32:35;28.70;99.90
17845;DHT22;9047;53.486;10.218;2023-09-08T11:35:04;28.70;99.90
17845;DHT22;9047;53.486;10.218;2023-09-08T11:37:35;28.80;99.90
17845;DHT22;9047;53.486;10.218;2023-09-08T11:40:03;28.90;99.90
17845;DHT22;9047;53.486;10.218;2023-09-08T11:42:34;28.90;99.90
17845;DHT22;9047;53.486;10.218;2023-09-08T11:45:01;29.00;99.90
17845;DHT22;9047;53.486;10.218;2023-09-08T11:47:33;29.00;99.90
17845;DHT22;9047;53.486;10.218;2023-09-08T11:50:00;29.00;99.90
17845;DHT22;9047;53.486;10.218;2023-09-08T11:52:26;29.10;99.90
17845;DHT22;9047;53.486;10.218;2023-09-08T11:54:55;29.20;99.90
17845;DHT22;9047;53.486;10.218;2023-09-08T11:57:22;29.20;99.90
17845;DHT22;9047;53.486;10.218;2023-09-08T11:59:52;29.30;99.90
17845;DHT22;9047;53.486;10.218;2023-09-08T12:02:19;29.30;99.90
17845;DHT22;9047;53.486;10.218;2023-09-08T12:04:48;29.30;99.90
17845;DHT22;9047;53.486;10.218;2023-09-08T12:07:17;29.40;99.90
17845;DHT22;9047;53.486;10.218;2023-09-08T12:09:45;29.40;99.90
17845;DHT22;9047;53.486;10.218;2023-09-08T12:12:12;29.40;99.90
17845;DHT22;9047;53.486;10.218;2023-09-08T12:14:43;29.40;99.90
17845;DHT22;9047;53.486;10.218;2023-09-08T12:17:09;29.50;99.90
17845;DHT22;9047;53.486;10.218;2023-09-08T12:19:39;29.60;99.90
17845;DHT22;9047;53.486;10.218;2023-09-08T12:22:08;29.70;99.90
17845;DHT22;9047;53.486;10.218;2023-09-08T12:24:55;29.70;99.90
17845;DHT22;9047;53.486;10.218;2023-09-08T12:27:23;29.80;99.90
17845;DHT22;9047;53.486;10.218;2023-09-08T12:29:55;29.90;99.90
17845;DHT22;9047;53.486;10.218;2023-09-08T12:32:23;29.90;99.90
17845;DHT22;9047;53.486;10.218;2023-09-08T12:34:52;29.90;99.90
17845;DHT22;9047;53.486;10.218;2023-09-08T12:37:24;29.90;99.90
17845;DHT22;9047;53.486;10.218;2023-09-08T12:39:54;30.00;99.50
17845;DHT22;9047;53.486;10.218;2023-09-08T12:42:22;30.00;98.60
17845;DHT22;9047;53.486;10.218;2023-09-08T12:44:52;30.10;96.40
17845;DHT22;9047;53.486;10.218;2023-09-08T12:47:19;30.10;95.90
17845;DHT22;9047;53.486;10.218;2023-09-08T12:49:46;30.20;95.70
17845;DHT22;9047;53.486;10.218;2023-09-08T12:52:13;30.20;95.90
17845;DHT22;9047;53.486;10.218;2023-09-08T12:54:41;30.30;95.40
17845;DHT22;9047;53.486;10.218;2023-09-08T12:57:08;30.30;95.20
17845;DHT22;9047;53.486;10.218;2023-09-08T12:59:35;30.40;95.30
17845;DHT22;9047;53.486;10.218;2023-09-08T13:02:02;30.50;94.90
17845;DHT22;9047;53.486;10.218;2023-09-08T13:04:29;30.50;94.80
17845;DHT22;9047;53.486;10.218;2023-09-08T13:06:56;30.50;94.70
17845;DHT22;9047;53.486;10.218;2023-09-08T13:09:24;30.50;95.40
17845;DHT22;9047;53.486;10.218;2023-09-08T13:11:52;30.50;94.80
17845;DHT22;9047;53.486;10.218;2023-09-08T13:14:19;30.50;94.80
17845;DHT22;9047;53.486;10.218;2023-09-08T13:16:54;30.40;94.90
17845;DHT22;9047;53.486;10.218;2023-09-08T13:19:21;30.40;94.80
17845;DHT22;9047;53.486;10.218;2023-09-08T13:21:48;30.40;94.40
17845;DHT22;9047;53.486;10.218;2023-09-08T13:24:14;30.40;94.70
17845;DHT22;9047;53.486;10.218;2023-09-08T13:26:41;30.50;94.30
17845;DHT22;9047;53.486;10.218;2023-09-08T13:29:13;30.60;94.10
17845;DHT22;9047;53.486;10.218;2023-09-08T13:31:40;30.60;94.40
17845;DHT22;9047;53.486;10.218;2023-09-08T13:34:07;30.60;94.00
17845;DHT22;9047;53.486;10.218;2023-09-08T13:36:35;30.70;94.20
17845;DHT22;9047;53.486;10.218;2023-09-08T13:39:02;30.70;93.70
17845;DHT22;9047;53.486;10.218;2023-09-08T13:41:47;30.70;93.60
17845;DHT22;9047;53.486;10.218;2023-09-08T13:44:17;30.70;94.10
17845;DHT22;9047;53.486;10.218;2023-09-08T13:46:46;30.70;93.80
17845;DHT22;9047;53.486;10.218;2023-09-08T13:49:13;30.70;94.10
17845;DHT22;9047;53.486;10.218;2023-09-08T13:51:40;30.70;93.80
17845;DHT22;9047;53.486;10.218;2023-09-08T13:54:08;30.70;93.90
17845;DHT22;9047;53.486;10.218;2023-09-08T13:56:37;30.60;93.60
17845;DHT22;9047;53.486;10.218;2023-09-08T13:59:07;30.60;93.80
17845;DHT22;9047;53.486;10.218;2023-09-08T14:01:36;30.60;93.80
17845;DHT22;9047;53.486;10.218;2023-09-08T14:04:04;30.70;93.90
17845;DHT22;9047;53.486;10.218;2023-09-08T14:06:35;30.60;93.70
17845;DHT22;9047;53.486;10.218;2023-09-08T14:09:02;30.60;93.90
17845;DHT22;9047;53.486;10.218;2023-09-08T14:11:29;30.60;94.10
17845;DHT22;9047;53.486;10.218;2023-09-08T14:13:56;30.60;94.10
17845;DHT22;9047;53.486;10.218;2023-09-08T14:16:23;30.60;94.10
17845;DHT22;9047;53.486;10.218;2023-09-08T14:18:53;30.60;93.90
17845;DHT22;9047;53.486;10.218;2023-09-08T14:21:20;30.70;93.40
17845;DHT22;9047;53.486;10.218;2023-09-08T14:23:48;30.70;93.70
17845;DHT22;9047;53.486;10.218;2023-09-08T14:26:15;30.70;93.60
17845;DHT22;9047;53.486;10.218;2023-09-08T14:28:42;30.60;93.80
17845;DHT22;9047;53.486;10.218;2023-09-08T14:31:09;30.60;93.60
17845;DHT22;9047;53.486;10.218;2023-09-08T14:33:36;30.50;93.80
17845;DHT22;9047;53.486;10.218;2023-09-08T14:36:04;30.50;94.00
17845;DHT22;9047;53.486;10.218;2023-09-08T14:38:33;30.60;93.80
17845;DHT22;9047;53.486;10.218;2023-09-08T14:41:01;30.50;93.90
17845;DHT22;9047;53.486;10.218;2023-09-08T14:43:29;30.50;94.30
17845;DHT22;9047;53.486;10.218;2023-09-08T14:45:57;30.50;94.00
17845;DHT22;9047;53.486;10.218;2023-09-08T14:48:24;30.50;93.90
17845;DHT22;9047;53.486;10.218;2023-09-08T14:50:51;30.50;94.00
17845;DHT22;9047;53.486;10.218;2023-09-08T14:53:19;30.50;93.90
17845;DHT22;9047;53.486;10.218;2023-09-08T14:55:48;30.50;94.00
17845;DHT22;9047;53.486;10.218;2023-09-08T14:58:15;30.50;93.90
17845;DHT22;9047;53.486;10.218;2023-09-08T15:00:44;30.50;93.50
17845;DHT22;9047;53.486;10.218;2023-09-08T15:03:10;30.50;93.70
17845;DHT22;9047;53.486;10.218;2023-09-08T15:05:40;30.40;94.00
17845;DHT22;9047;53.486;10.218;2023-09-08T15:08:08;30.40;94.20
17845;DHT22;9047;53.486;10.218;2023-09-08T15:10:36;30.40;94.10
17845;DHT22;9047;53.486;10.218;2023-09-08T15:13:03;30.40;93.90
17845;DHT22;9047;53.486;10.218;2023-09-08T15:15:30;30.40;93.70
17845;DHT22;9047;53.486;10.218;2023-09-08T15:17:57;30.40;93.50
17845;DHT22;9047;53.486;10.218;2023-09-08T15:20:24;30.40;93.50
17845;DHT22;9047;53.486;10.218;2023-09-08T15:22:51;30.30;93.60
17845;DHT22;9047;53.486;10.218;2023-09-08T15:25:21;30.30;93.60
17845;DHT22;9047;53.486;10.218;2023-09-08T15:27:50;30.30;93.90
17845;DHT22;9047;53.486;10.218;2023-09-08T15:30:20;30.30;93.80
17845;DHT22;9047;53.486;10.218;2023-09-08T15:32:47;30.30;93.20
17845;DHT22;9047;53.486;10.218;2023-09-08T15:35:14;30.30;93.40
17845;DHT22;9047;53.486;10.218;2023-09-08T15:37:41;30.30;93.00